Main page
METAR-TAF:

METAR-TAF

Airports :

Katima Mulilo Airport

Katima Mulilo, Namibia

latitude: 17-38-04S, longitude: 024-10-36E, elevation: 985 m

Current weather observation

The report was made 33 minutes ago, at 18:00 UTC
Wind 4 kt from the East/Northeast
Temperature 29°C
Humidity 48%
Pressure 1014 hPa

METAR: FYKM 281800Z AUTO 06004KT //// // ////// 29/17 Q1014

Time: 20:33 (18:33 UTC)

Forecast

The report was made 1 hour and 33 minutes ago, at 17:00 UTC
Forecast valid from 28 at 18 UTC to 29 at 03 UTC
Wind 4 kt from the East
Visibility 10 km or more
Scattered clouds at a height of 3500 ft
Becoming
from 28 at 20 UTC to 28 at 22 UTC
Wind kt from the North

TAF: FYKM 281700Z 2818/2903 08004KT 9999 SCT035 BECMG 2820/2822 00000KT NSC

Weather observations and forecasts of more than 4000 airports (METAR and TAF reports).

The available stations are represented by yellow and red dots on the map.

Hover mouse over dot to see the name of the station.

Then click to see weather observations and forecasts.

To change the map : click on the green buttons with a black cross to zoom in, on the green button with a dash to zoom out, or on the green arrows for adjacent maps.


METAR-TAF: